Time;durP1;ratioP1;P1;durP2;ratioP2;P2;SDS_P1;SDS_P2;PMS_P1;PMS_P2;Temp;Humidity;BMP_temperature;BMP_pressure;BME280_temperature;BME280_humidity;BME280_pressure;Samples;Min_cycle;Max_cycle;Signal;HPM_P1;HPM_P2
2022/08/12 00:45:03;;;;;;;0.00;0.00;;;;;;;;;;5023720;28;20101;-96
2022/08/12 00:47:30;;;;;;;0.03;0.03;;;;;;;;;;5025950;28;20132;-96
2022/08/12 00:49:58;;;;;;;0.10;0.10;;;;;;;;;;5010575;28;20064;-96
2022/08/12 00:52:24;;;;;;;0.00;0.00;;;;;;;;;;5004791;28;20494;-96
2022/08/12 00:54:52;;;;;;;0.00;0.00;;;;;;;;;;5009180;28;20097;-96
2022/08/12 00:57:22;;;;;;;0.10;0.10;;;;;;;;;;5009118;28;20041;-96
2022/08/12 00:59:59;;;;;;;0.00;0.00;;;;;;;;;;5006422;28;20103;-96
2022/08/12 01:02:29;;;;;;;0.00;0.00;;;;;;;;;;4994820;28;20049;-95
2022/08/12 01:13:21;;;;;;;7.28;4.85;;;;;;;;;;5019377;28;20086;-95
2022/08/12 01:15:49;;;;;;;0.10;0.10;;;;;;;;;;5005240;28;20112;-96
2022/08/12 01:18:16;;;;;;;0.00;0.00;;;;;;;;;;5005466;28;20038;-96
2022/08/12 01:21:10;;;;;;;0.00;0.00;;;;;;;;;;5006941;28;20447;-96
2022/08/12 01:27:03;;;;;;;0.00;0.00;;;;;;;;;;5031224;28;20068;-96
2022/08/12 01:29:33;;;;;;;0.05;0.05;;;;;;;;;;5006767;28;20062;-96
2022/08/12 01:32:07;;;;;;;0.10;0.10;;;;;;;;;;5029337;28;20041;-96
2022/08/12 01:34:38;;;;;;;0.08;0.08;;;;;;;;;;5015544;28;20033;-96
2022/08/12 01:38:00;;;;;;;0.00;0.00;;;;;;;;;;5020207;28;20041;-96
2022/08/12 01:40:27;;;;;;;0.10;0.10;;;;;;;;;;5011087;28;20042;-96
2022/08/12 01:42:57;;;;;;;0.00;0.00;;;;;;;;;;5009711;28;20030;-96
2022/08/12 01:45:24;;;;;;;0.00;0.00;;;;;;;;;;5007776;28;20437;-96
2022/08/12 01:47:56;;;;;;;0.10;0.10;;;;;;;;;;5008611;28;20045;-96
2022/08/12 01:50:36;;;;;;;0.00;0.00;;;;;;;;;;5011583;28;20037;-96
2022/08/12 01:53:04;;;;;;;0.00;0.00;;;;;;;;;;5008124;28;20052;-96
2022/08/12 01:55:32;;;;;;;0.00;0.00;;;;;;;;;;5010583;28;20049;-96
2022/08/12 01:58:07;;;;;;;0.10;0.10;;;;;;;;;;5012799;28;20044;-96
2022/08/12 02:00:50;;;;;;;0.10;0.10;;;;;;;;;;5011781;28;20042;-96
2022/08/12 02:12:25;;;;;;;0.00;0.00;;;;;;;;;;5020105;28;20046;-96
2022/08/12 02:14:51;;;;;;;0.10;0.10;;;;;;;;;;5011514;28;20046;-95
2022/08/12 02:17:36;;;;;;;0.00;0.00;;;;;;;;;;5010842;28;20030;-96
2022/08/12 02:20:06;;;;;;;0.10;0.10;;;;;;;;;;5011098;28;20042;-96
2022/08/12 02:22:35;;;;;;;0.03;0.03;;;;;;;;;;5011382;28;20102;-96
2022/08/12 02:25:10;;;;;;;0.05;0.05;;;;;;;;;;5010615;28;20045;-96
2022/08/12 02:27:41;;;;;;;0.00;0.00;;;;;;;;;;5003688;28;20507;-96
2022/08/12 02:30:10;;;;;;;0.13;0.13;;;;;;;;;;5009839;28;20053;-95
2022/08/12 02:32:37;;;;;;;0.10;0.10;;;;;;;;;;5010341;28;20042;-96
2022/08/12 02:35:04;;;;;;;0.10;0.10;;;;;;;;;;5009354;28;20041;-94
2022/08/12 02:37:31;;;;;;;0.10;0.10;;;;;;;;;;5010880;28;20117;-96
2022/08/12 02:39:59;;;;;;;0.00;0.00;;;;;;;;;;5010699;28;20044;-96
2022/08/12 02:42:27;;;;;;;0.10;0.10;;;;;;;;;;5003993;28;20034;-96
2022/08/12 02:44:55;;;;;;;0.10;0.10;;;;;;;;;;5011283;28;20033;-96
2022/08/12 02:47:21;;;;;;;0.05;0.05;;;;;;;;;;5010074;28;20482;-96
2022/08/12 02:49:51;;;;;;;0.00;0.00;;;;;;;;;;5010486;28;20041;-96
2022/08/12 02:52:19;;;;;;;0.00;0.00;;;;;;;;;;5010458;28;20021;-96
2022/08/12 02:54:47;;;;;;;0.10;0.10;;;;;;;;;;4994387;28;20042;-96
2022/08/12 02:57:14;;;;;;;0.00;0.00;;;;;;;;;;5006848;28;20034;-96
2022/08/12 02:59:40;;;;;;;0.00;0.00;;;;;;;;;;4998677;28;20038;-95
2022/08/12 03:02:09;;;;;;;0.10;0.10;;;;;;;;;;5010362;28;20034;-96
2022/08/12 03:04:45;;;;;;;0.00;0.00;;;;;;;;;;5010645;28;20096;-96
2022/08/12 03:07:15;;;;;;;0.00;0.00;;;;;;;;;;5001971;28;20121;-95
2022/08/12 03:09:53;;;;;;;0.00;0.00;;;;;;;;;;5010349;28;20042;-96
2022/08/12 03:12:20;;;;;;;0.00;0.00;;;;;;;;;;5007169;28;20042;-96
2022/08/12 03:14:48;;;;;;;0.10;0.10;;;;;;;;;;5009928;28;20052;-94
2022/08/12 03:17:34;;;;;;;0.00;0.00;;;;;;;;;;5007609;28;20049;-95
2022/08/12 03:20:01;;;;;;;0.00;0.00;;;;;;;;;;5007776;28;20077;-96
2022/08/12 03:22:28;;;;;;;0.10;0.10;;;;;;;;;;5008813;28;20038;-95
2022/08/12 03:24:55;;;;;;;0.10;0.10;;;;;;;;;;5010094;28;20069;-95
2022/08/12 03:27:23;;;;;;;0.00;0.00;;;;;;;;;;5008719;28;20519;-96
2022/08/12 03:29:50;;;;;;;0.50;0.50;;;;;;;;;;5010487;28;20143;-96
2022/08/12 03:32:18;;;;;;;0.10;0.10;;;;;;;;;;5008557;28;20052;-95
2022/08/12 03:34:45;;;;;;;0.10;0.10;;;;;;;;;;5005880;28;20038;-96
2022/08/12 03:37:12;;;;;;;0.10;0.10;;;;;;;;;;4991619;28;20069;-94
2022/08/12 03:42:11;;;;;;;0.05;0.05;;;;;;;;;;5021817;28;20048;-94
2022/08/12 04:01:18;;;;;;;0.10;0.10;;;;;;;;;;5028796;28;20080;-96
2022/08/12 04:03:51;;;;;;;0.10;0.10;;;;;;;;;;5009146;28;20046;-96
2022/08/12 04:06:20;;;;;;;0.10;0.10;;;;;;;;;;5008588;28;20117;-96
2022/08/12 04:08:48;;;;;;;0.00;0.00;;;;;;;;;;5009545;28;20038;-96
2022/08/12 04:14:12;;;;;;;0.10;0.10;;;;;;;;;;5019230;28;20200;-96
2022/08/12 04:16:39;;;;;;;0.08;0.08;;;;;;;;;;5013662;28;20081;-96
2022/08/12 04:19:06;;;;;;;0.00;0.00;;;;;;;;;;5006402;28;20077;-95
2022/08/12 04:21:32;;;;;;;0.10;0.10;;;;;;;;;;5007776;28;20411;-95
2022/08/12 04:23:59;;;;;;;0.00;0.00;;;;;;;;;;5008740;28;20046;-95
2022/08/12 04:26:26;;;;;;;0.00;0.00;;;;;;;;;;4993153;28;20073;-93
2022/08/12 04:28:52;;;;;;;0.10;0.10;;;;;;;;;;5016837;28;20034;-96
2022/08/12 04:31:18;;;;;;;0.03;0.03;;;;;;;;;;5009916;28;20045;-96
2022/08/12 04:33:45;;;;;;;0.00;0.00;;;;;;;;;;5009553;28;20038;-96
2022/08/12 04:36:11;;;;;;;0.10;0.10;;;;;;;;;;5013501;28;20045;-96
2022/08/12 04:38:37;;;;;;;0.10;0.10;;;;;;;;;;5029591;28;20042;-96
2022/08/12 04:41:04;;;;;;;0.10;0.10;;;;;;;;;;5020082;28;20038;-96
2022/08/12 04:43:30;;;;;;;0.00;0.00;;;;;;;;;;5021341;28;20068;-96
2022/08/12 04:45:57;;;;;;;0.28;0.28;;;;;;;;;;5026933;28;20037;-96
2022/08/12 04:48:23;;;;;;;0.05;0.05;;;;;;;;;;5009656;28;20066;-95
2022/08/12 04:50:50;;;;;;;0.08;0.08;;;;;;;;;;5010540;28;20072;-96
2022/08/12 04:53:16;;;;;;;0.00;0.00;;;;;;;;;;5008990;28;20046;-96
2022/08/12 04:55:44;;;;;;;0.10;0.10;;;;;;;;;;5008790;28;20042;-95
2022/08/12 04:58:11;;;;;;;0.00;0.00;;;;;;;;;;5007479;28;20042;-96
2022/08/12 05:00:37;;;;;;;0.00;0.00;;;;;;;;;;5006541;28;20092;-96
2022/08/12 05:03:04;;;;;;;0.20;0.20;;;;;;;;;;5002892;28;20045;-96
2022/08/12 05:05:31;;;;;;;0.10;0.10;;;;;;;;;;5017181;28;20041;-95
2022/08/12 05:07:57;;;;;;;0.20;0.20;;;;;;;;;;5003094;28;20045;-95
2022/08/12 05:10:24;;;;;;;0.05;0.05;;;;;;;;;;5005943;28;20143;-96
2022/08/12 05:12:55;;;;;;;0.08;0.08;;;;;;;;;;5007992;28;20077;-96
2022/08/12 05:15:21;;;;;;;0.00;0.00;;;;;;;;;;5010054;28;20042;-95
2022/08/12 05:17:47;;;;;;;0.10;0.10;;;;;;;;;;5015072;28;20042;-96
2022/08/12 05:20:19;;;;;;;0.10;0.10;;;;;;;;;;5024743;28;20546;-95
2022/08/12 05:22:45;;;;;;;0.05;0.05;;;;;;;;;;5008753;28;20046;-94
2022/08/12 05:25:11;;;;;;;0.10;0.10;;;;;;;;;;5011581;28;20046;-94
2022/08/12 05:27:44;;;;;;;0.00;0.00;;;;;;;;;;4998361;28;20046;-94
2022/08/12 05:30:14;;;;;;;0.00;0.00;;;;;;;;;;5027574;28;20076;-95
2022/08/12 05:32:41;;;;;;;0.10;0.10;;;;;;;;;;5015157;28;20631;-95
2022/08/12 05:35:07;;;;;;;0.08;0.08;;;;;;;;;;5024193;28;20038;-94
2022/08/12 05:37:34;;;;;;;0.10;0.10;;;;;;;;;;5011465;28;20042;-96
2022/08/12 05:40:00;;;;;;;0.00;0.00;;;;;;;;;;5011244;28;20077;-96
2022/08/12 05:42:26;;;;;;;0.00;0.00;;;;;;;;;;5010689;28;20072;-94
2022/08/12 05:44:52;;;;;;;0.03;0.03;;;;;;;;;;5011393;28;20056;-96
2022/08/12 05:47:18;;;;;;;0.05;0.05;;;;;;;;;;5025094;28;20040;-95
2022/08/12 05:49:44;;;;;;;0.00;0.00;;;;;;;;;;5031413;28;20041;-95
2022/08/12 05:52:11;;;;;;;0.10;0.10;;;;;;;;;;5003192;28;20045;-94
2022/08/12 05:54:42;;;;;;;0.00;0.00;;;;;;;;;;5011528;28;20042;-93
2022/08/12 05:57:11;;;;;;;0.00;0.00;;;;;;;;;;5029203;28;20049;-93
2022/08/12 05:59:43;;;;;;;0.20;0.20;;;;;;;;;;5023585;28;20042;-92
2022/08/12 06:02:10;;;;;;;0.08;0.08;;;;;;;;;;5031681;28;20064;-93
2022/08/12 06:04:42;;;;;;;0.00;0.00;;;;;;;;;;5017363;28;20068;-94
2022/08/12 06:07:11;;;;;;;0.00;0.00;;;;;;;;;;5016835;28;20125;-95
2022/08/12 06:09:37;;;;;;;0.00;0.00;;;;;;;;;;4998312;28;20052;-94
2022/08/12 06:12:03;;;;;;;0.10;0.10;;;;;;;;;;5016678;28;20045;-94
2022/08/12 06:14:35;;;;;;;0.10;0.10;;;;;;;;;;5014410;28;20041;-95
2022/08/12 06:17:03;;;;;;;0.00;0.00;;;;;;;;;;5004013;28;20060;-92
2022/08/12 06:19:30;;;;;;;0.20;0.20;;;;;;;;;;5009358;28;20038;-93
2022/08/12 06:21:56;;;;;;;0.08;0.08;;;;;;;;;;5009026;28;20038;-95
2022/08/12 06:24:23;;;;;;;0.10;0.10;;;;;;;;;;5010076;28;20038;-93
2022/08/12 06:26:50;;;;;;;0.03;0.03;;;;;;;;;;5013225;28;20038;-95
2022/08/12 06:29:18;;;;;;;0.00;0.00;;;;;;;;;;5009332;28;20486;-96
2022/08/12 06:31:49;;;;;;;0.10;0.10;;;;;;;;;;5026365;28;20044;-93
2022/08/12 06:34:16;;;;;;;0.10;0.10;;;;;;;;;;5009219;28;20502;-93
2022/08/12 06:36:43;;;;;;;0.10;0.10;;;;;;;;;;5009933;28;20051;-94
2022/08/12 06:39:09;;;;;;;0.00;0.00;;;;;;;;;;5014362;28;20045;-93
2022/08/12 06:44:20;;;;;;;0.00;0.00;;;;;;;;;;5038658;28;20499;-95
2022/08/12 06:46:46;;;;;;;0.10;0.10;;;;;;;;;;5015941;28;20018;-93
2022/08/12 06:49:12;;;;;;;0.03;0.03;;;;;;;;;;5013271;28;20097;-94
2022/08/12 06:51:39;;;;;;;0.00;0.00;;;;;;;;;;5007350;28;20050;-94
2022/08/12 06:54:06;;;;;;;0.00;0.00;;;;;;;;;;4992083;28;20038;-95
2022/08/12 06:56:33;;;;;;;0.10;0.10;;;;;;;;;;5009918;28;20042;-96
2022/08/12 06:59:01;;;;;;;0.10;0.10;;;;;;;;;;5009191;28;20092;-94
2022/08/12 07:01:30;;;;;;;0.00;0.00;;;;;;;;;;5013848;28;20042;-96
2022/08/12 07:03:57;;;;;;;0.15;0.15;;;;;;;;;;4997926;28;20092;-96
2022/08/12 07:06:24;;;;;;;0.00;0.00;;;;;;;;;;4998863;28;20073;-96
2022/08/12 07:08:50;;;;;;;0.10;0.10;;;;;;;;;;5008222;28;20742;-96
2022/08/12 07:11:17;;;;;;;0.10;0.10;;;;;;;;;;5031551;28;20046;-95
2022/08/12 07:13:44;;;;;;;0.05;0.05;;;;;;;;;;5012084;28;20037;-96
2022/08/12 07:16:12;;;;;;;0.00;0.00;;;;;;;;;;5010254;28;20033;-94
2022/08/12 07:18:39;;;;;;;0.10;0.10;;;;;;;;;;5009565;28;20050;-95
2022/08/12 07:21:06;;;;;;;0.00;0.00;;;;;;;;;;5010244;28;20038;-96
2022/08/12 07:23:34;;;;;;;0.00;0.00;;;;;;;;;;5009838;28;20041;-96
2022/08/12 07:26:01;;;;;;;0.03;0.03;;;;;;;;;;5011235;28;20490;-96
2022/08/12 07:28:29;;;;;;;0.10;0.10;;;;;;;;;;5022876;28;20561;-96
2022/08/12 07:30:56;;;;;;;0.00;0.00;;;;;;;;;;5016200;28;20054;-96
2022/08/12 07:33:26;;;;;;;0.05;0.05;;;;;;;;;;5010824;28;20048;-95
2022/08/12 07:35:54;;;;;;;0.00;0.00;;;;;;;;;;5010243;28;20044;-95
2022/08/12 07:38:38;;;;;;;0.10;0.10;;;;;;;;;;5010366;28;20065;-96
2022/08/12 07:41:09;;;;;;;0.00;0.00;;;;;;;;;;5004644;28;20030;-96
2022/08/12 07:43:36;;;;;;;0.00;0.00;;;;;;;;;;5012908;28;20073;-96
2022/08/12 07:46:04;;;;;;;0.05;0.05;;;;;;;;;;5019440;28;20041;-95
2022/08/12 07:48:41;;;;;;;0.00;0.00;;;;;;;;;;5009039;28;20064;-96
2022/08/12 07:51:08;;;;;;;0.00;0.00;;;;;;;;;;5005802;28;20040;-96
2022/08/12 07:53:34;;;;;;;0.00;0.00;;;;;;;;;;5010354;28;20050;-96
2022/08/12 07:56:01;;;;;;;0.03;0.03;;;;;;;;;;5014912;28;20049;-96
2022/08/12 07:58:27;;;;;;;0.00;0.00;;;;;;;;;;4998307;28;20081;-96
2022/08/12 08:00:56;;;;;;;0.00;0.00;;;;;;;;;;5010445;28;20061;-95
2022/08/12 08:03:24;;;;;;;0.00;0.00;;;;;;;;;;5018338;28;20120;-96
2022/08/12 08:05:51;;;;;;;0.00;0.00;;;;;;;;;;5022487;28;20057;-95
2022/08/12 08:08:27;;;;;;;0.00;0.00;;;;;;;;;;5007313;28;20017;-95
2022/08/12 08:13:43;;;;;;;0.00;0.00;;;;;;;;;;5002887;28;20487;-95
2022/08/12 08:16:09;;;;;;;0.00;0.00;;;;;;;;;;5010686;28;20468;-95
2022/08/12 08:18:36;;;;;;;0.10;0.10;;;;;;;;;;5022639;28;20073;-96
2022/08/12 08:21:03;;;;;;;0.00;0.00;;;;;;;;;;5040310;28;20042;-95
2022/08/12 08:26:15;;;;;;;0.00;0.00;;;;;;;;;;5026432;28;20049;-94
2022/08/12 08:28:44;;;;;;;0.00;0.00;;;;;;;;;;5009621;28;20050;-96
2022/08/12 08:31:12;;;;;;;0.00;0.00;;;;;;;;;;5023863;28;20049;-94
2022/08/12 08:34:01;;;;;;;0.00;0.00;;;;;;;;;;5010995;28;20037;-94
2022/08/12 08:36:36;;;;;;;0.00;0.00;;;;;;;;;;5008981;28;20038;-92
2022/08/12 08:39:03;;;;;;;;;;;;;;;;;;5006834;28;20052;-95
2022/08/12 08:44:15;;;;;;;;;;;;;;;;;;5026025;28;20042;-93
2022/08/12 08:46:43;;;;;;;0.00;0.00;;;;;;;;;;5007423;28;19921;-94
2022/08/12 08:49:09;;;;;;;0.10;0.10;;;;;;;;;;5015027;28;20037;-94
2022/08/12 08:51:37;;;;;;;0.00;0.00;;;;;;;;;;5028453;28;20041;-96
2022/08/12 08:54:05;;;;;;;0.20;0.20;;;;;;;;;;5010471;28;20120;-95
2022/08/12 08:56:41;;;;;;;0.00;0.00;;;;;;;;;;5023024;28;20060;-96
2022/08/12 08:59:08;;;;;;;0.00;0.00;;;;;;;;;;5030006;28;20049;-94
2022/08/12 09:01:34;;;;;;;0.00;0.00;;;;;;;;;;5024945;28;20113;-96
2022/08/12 09:04:05;;;;;;;0.00;0.00;;;;;;;;;;5045262;28;20085;-94
2022/08/12 09:06:31;;;;;;;0.00;0.00;;;;;;;;;;4999759;28;20108;-95
2022/08/12 09:08:57;;;;;;;0.00;0.00;;;;;;;;;;5009924;28;20046;-94
2022/08/12 09:14:10;;;;;;;0.00;0.00;;;;;;;;;;5032166;28;20034;-94
2022/08/12 09:16:38;;;;;;;0.00;0.00;;;;;;;;;;5033493;28;20057;-95
2022/08/12 09:19:04;;;;;;;0.10;0.10;;;;;;;;;;5009587;28;20061;-94
2022/08/12 09:21:32;;;;;;;0.10;0.10;;;;;;;;;;5014042;28;20050;-94
2022/08/12 09:23:59;;;;;;;0.00;0.00;;;;;;;;;;5015801;28;20042;-96
2022/08/12 09:26:30;;;;;;;0.00;0.00;;;;;;;;;;5024881;28;20049;-91
2022/08/12 09:28:56;;;;;;;0.00;0.00;;;;;;;;;;5005949;28;20049;-96
2022/08/12 09:31:30;;;;;;;0.10;0.10;;;;;;;;;;5009347;28;20154;-96
2022/08/12 09:34:14;;;;;;;0.00;0.00;;;;;;;;;;5000850;28;20046;-93
2022/08/12 09:36:40;;;;;;;0.00;0.00;;;;;;;;;;5001517;28;20038;-93
2022/08/12 09:39:06;;;;;;;0.00;0.00;;;;;;;;;;5006665;28;20045;-91
2022/08/12 09:41:39;;;;;;;0.00;0.00;;;;;;;;;;4997597;28;20053;-93
2022/08/12 09:46:50;;;;;;;0.00;0.00;;;;;;;;;;5021090;28;20045;-94
2022/08/12 09:49:16;;;;;;;0.00;0.00;;;;;;;;;;5004759;28;20684;-94
2022/08/12 09:51:50;;;;;;;0.00;0.00;;;;;;;;;;5007026;28;20061;-95
2022/08/12 09:54:16;;;;;;;0.00;0.00;;;;;;;;;;5017004;28;20095;-93
2022/08/12 09:56:46;;;;;;;0.00;0.00;;;;;;;;;;5003467;28;20046;-92
2022/08/12 09:59:14;;;;;;;0.00;0.00;;;;;;;;;;4994518;28;20037;-93
2022/08/12 10:01:40;;;;;;;0.00;0.00;;;;;;;;;;5017234;28;20412;-96
2022/08/12 10:04:09;;;;;;;0.00;0.00;;;;;;;;;;5002221;28;20034;-96
2022/08/12 10:06:38;;;;;;;0.00;0.00;;;;;;;;;;4995380;28;20042;-94
2022/08/12 10:09:05;;;;;;;0.10;0.10;;;;;;;;;;5004201;28;20098;-94
2022/08/12 10:14:23;;;;;;;0.00;0.00;;;;;;;;;;5012507;28;20065;-92
2022/08/12 10:16:49;;;;;;;0.00;0.00;;;;;;;;;;5004135;28;20047;-93
2022/08/12 10:19:17;;;;;;;0.05;0.05;;;;;;;;;;5009167;28;20097;-95
2022/08/12 10:21:44;;;;;;;0.00;0.00;;;;;;;;;;5002807;28;20122;-94
2022/08/12 10:24:10;;;;;;;0.00;0.00;;;;;;;;;;5009718;28;20038;-94
2022/08/12 10:29:44;;;;;;;0.10;0.10;;;;;;;;;;5018657;28;20046;-91
2022/08/12 10:32:22;;;;;;;0.00;0.00;;;;;;;;;;5009079;28;20032;-94
2022/08/12 10:34:49;;;;;;;0.00;0.00;;;;;;;;;;5012254;28;20034;-94
2022/08/12 10:37:16;;;;;;;0.00;0.00;;;;;;;;;;5010582;28;20042;-92
2022/08/12 10:39:42;;;;;;;0.00;0.00;;;;;;;;;;5005445;28;20487;-93
2022/08/12 10:44:59;;;;;;;0.00;0.00;;;;;;;;;;5017237;28;20061;-95
2022/08/12 10:47:29;;;;;;;0.10;0.10;;;;;;;;;;5009375;28;20037;-94
2022/08/12 10:49:55;;;;;;;0.13;0.13;;;;;;;;;;5008638;28;20044;-93
2022/08/12 10:52:25;;;;;;;0.00;0.00;;;;;;;;;;5012430;28;20172;-96
2022/08/12 10:54:51;;;;;;;0.00;0.00;;;;;;;;;;4993857;28;20049;-95
2022/08/12 10:57:17;;;;;;;0.00;0.00;;;;;;;;;;5015827;28;20040;-96
2022/08/12 10:59:44;;;;;;;0.10;0.10;;;;;;;;;;5028199;28;20109;-95
2022/08/12 11:02:14;;;;;;;0.00;0.00;;;;;;;;;;5009383;28;20045;-96
2022/08/12 11:04:41;;;;;;;0.00;0.00;;;;;;;;;;5007803;28;20061;-94
2022/08/12 11:07:08;;;;;;;0.00;0.00;;;;;;;;;;5010788;28;20085;-96
2022/08/12 11:09:37;;;;;;;0.00;0.00;;;;;;;;;;4997244;28;20060;-95
2022/08/12 11:12:06;;;;;;;0.03;0.03;;;;;;;;;;5012926;28;20041;-93
2022/08/12 11:14:33;;;;;;;0.00;0.00;;;;;;;;;;5005153;28;20128;-94
2022/08/12 11:17:06;;;;;;;0.00;0.00;;;;;;;;;;5014817;28;20042;-94
2022/08/12 11:19:45;;;;;;;0.00;0.00;;;;;;;;;;5009354;28;20406;-94
2022/08/12 11:22:11;;;;;;;0.00;0.00;;;;;;;;;;5007246;28;20056;-92
2022/08/12 11:24:38;;;;;;;0.00;0.00;;;;;;;;;;5018343;28;20492;-95
2022/08/12 11:27:05;;;;;;;0.00;0.00;;;;;;;;;;5008960;28;20061;-94
2022/08/12 11:29:32;;;;;;;0.10;0.10;;;;;;;;;;5009146;28;20049;-93
2022/08/12 11:32:01;;;;;;;0.00;0.00;;;;;;;;;;5019439;28;20033;-94
2022/08/12 11:34:30;;;;;;;0.08;0.08;;;;;;;;;;5015982;28;20091;-95
2022/08/12 11:36:59;;;;;;;0.00;0.00;;;;;;;;;;4996994;28;20038;-95
2022/08/12 11:39:26;;;;;;;0.03;0.03;;;;;;;;;;5011625;28;20041;-93
2022/08/12 11:41:52;;;;;;;0.00;0.00;;;;;;;;;;5010978;28;20080;-95
2022/08/12 11:44:18;;;;;;;0.00;0.00;;;;;;;;;;5006152;28;20593;-90
2022/08/12 11:46:49;;;;;;;0.00;0.00;;;;;;;;;;5009880;28;20038;-95
2022/08/12 11:49:16;;;;;;;0.00;0.00;;;;;;;;;;4993929;28;20034;-91
2022/08/12 11:51:43;;;;;;;0.00;0.00;;;;;;;;;;5007150;28;20042;-93
2022/08/12 11:54:09;;;;;;;0.00;0.00;;;;;;;;;;5008719;28;20133;-90
2022/08/12 11:56:35;;;;;;;0.10;0.10;;;;;;;;;;5007727;28;20037;-94
2022/08/12 11:59:02;;;;;;;0.00;0.00;;;;;;;;;;5013940;28;20068;-94
2022/08/12 12:01:48;;;;;;;0.00;0.00;;;;;;;;;;5022989;28;20037;-93
2022/08/12 12:04:14;;;;;;;0.00;0.00;;;;;;;;;;5005566;28;20129;-93
2022/08/12 12:06:41;;;;;;;0.00;0.00;;;;;;;;;;5004689;28;20470;-93
2022/08/12 12:09:10;;;;;;;0.00;0.00;;;;;;;;;;5022925;28;20117;-90
2022/08/12 12:11:36;;;;;;;0.10;0.10;;;;;;;;;;5002602;28;20488;-93
2022/08/12 12:14:02;;;;;;;0.00;0.00;;;;;;;;;;5003873;28;20095;-90
2022/08/12 12:16:28;;;;;;;0.10;0.10;;;;;;;;;;5008060;28;20034;-92
2022/08/12 12:18:54;;;;;;;0.00;0.00;;;;;;;;;;5010181;28;20066;-93
2022/08/12 12:21:31;;;;;;;0.00;0.00;;;;;;;;;;5000576;28;20037;-92
2022/08/12 12:24:19;;;;;;;0.10;0.10;;;;;;;;;;4998798;28;20129;-95
2022/08/12 12:26:45;;;;;;;0.00;0.00;;;;;;;;;;5003342;28;20034;-93
2022/08/12 12:29:11;;;;;;;0.00;0.00;;;;;;;;;;5020934;28;20048;-93
2022/08/12 12:31:37;;;;;;;0.00;0.00;;;;;;;;;;5004879;28;20046;-93
2022/08/12 12:34:03;;;;;;;0.10;0.10;;;;;;;;;;5004341;28;20037;-91
2022/08/12 12:36:29;;;;;;;0.10;0.10;;;;;;;;;;5005131;28;20510;-94
2022/08/12 12:38:55;;;;;;;0.00;0.00;;;;;;;;;;5004165;28;20038;-94
2022/08/12 12:41:21;;;;;;;0.00;0.00;;;;;;;;;;5004336;28;20038;-92
2022/08/12 12:43:47;;;;;;;0.10;0.10;;;;;;;;;;4994105;28;20066;-94
2022/08/12 12:46:13;;;;;;;0.00;0.00;;;;;;;;;;5009926;28;20045;-92
2022/08/12 12:48:42;;;;;;;0.00;0.00;;;;;;;;;;5004720;28;20053;-92
2022/08/12 12:51:17;;;;;;;0.00;0.00;;;;;;;;;;5005731;28;20486;-89
2022/08/12 12:53:44;;;;;;;0.05;0.05;;;;;;;;;;5001584;28;20130;-92
2022/08/12 12:56:19;;;;;;;0.10;0.10;;;;;;;;;;5004159;28;20044;-92
2022/08/12 12:58:51;;;;;;;0.00;0.00;;;;;;;;;;5002912;28;20049;-95
2022/08/12 13:01:20;;;;;;;0.00;0.00;;;;;;;;;;4999960;28;20042;-91
2022/08/12 13:03:52;;;;;;;0.00;0.00;;;;;;;;;;5013815;28;20042;-92
2022/08/12 13:06:24;;;;;;;0.00;0.00;;;;;;;;;;5002636;28;20022;-93
2022/08/12 13:08:50;;;;;;;0.08;0.08;;;;;;;;;;5000695;28;20037;-94
2022/08/12 13:11:19;;;;;;;0.10;0.10;;;;;;;;;;5000875;28;20070;-93
2022/08/12 13:13:48;;;;;;;0.10;0.10;;;;;;;;;;5002295;28;20052;-92
2022/08/12 13:16:20;;;;;;;0.10;0.10;;;;;;;;;;5008678;28;20061;-92
2022/08/12 13:18:50;;;;;;;0.00;0.00;;;;;;;;;;5011987;28;20480;-93
2022/08/12 13:21:17;;;;;;;0.00;0.00;;;;;;;;;;4993757;28;20726;-89
2022/08/12 13:23:58;;;;;;;0.10;0.10;;;;;;;;;;5001466;28;20042;-93
2022/08/12 13:26:33;;;;;;;0.08;0.08;;;;;;;;;;4999923;28;20034;-91
2022/08/12 13:29:04;;;;;;;0.00;0.00;;;;;;;;;;5021689;28;20038;-92
2022/08/12 13:31:30;;;;;;;0.10;0.10;;;;;;;;;;5005426;28;20056;-93
2022/08/12 13:33:56;;;;;;;0.00;0.00;;;;;;;;;;5003477;28;20061;-91
2022/08/12 13:36:25;;;;;;;0.10;0.10;;;;;;;;;;4992593;28;20046;-90
2022/08/12 13:38:52;;;;;;;0.00;0.00;;;;;;;;;;5014562;28;20053;-92
2022/08/12 13:41:35;;;;;;;0.00;0.00;;;;;;;;;;5001902;28;20052;-93
2022/08/12 13:44:05;;;;;;;0.08;0.08;;;;;;;;;;4999709;28;20078;-93
2022/08/12 13:46:34;;;;;;;0.00;0.00;;;;;;;;;;5023622;28;20064;-93
2022/08/12 13:49:01;;;;;;;0.00;0.00;;;;;;;;;;5008214;28;20042;-90
2022/08/12 13:51:29;;;;;;;0.10;0.10;;;;;;;;;;5005740;28;20030;-91
2022/08/12 13:53:55;;;;;;;0.00;0.00;;;;;;;;;;5024598;28;20038;-87
2022/08/12 13:56:33;;;;;;;0.00;0.00;;;;;;;;;;5009972;28;20200;-91
2022/08/12 13:59:08;;;;;;;0.00;0.00;;;;;;;;;;5018743;28;20042;-94
2022/08/12 14:01:41;;;;;;;0.00;0.00;;;;;;;;;;5003513;28;20061;-92
2022/08/12 14:04:09;;;;;;;0.00;0.00;;;;;;;;;;5002603;28;20057;-92
2022/08/12 14:06:37;;;;;;;0.00;0.00;;;;;;;;;;4995673;28;20042;-95
2022/08/12 14:09:03;;;;;;;0.00;0.00;;;;;;;;;;5005882;28;20124;-93
2022/08/12 14:11:30;;;;;;;0.10;0.10;;;;;;;;;;5007483;28;20484;-92
2022/08/12 14:13:58;;;;;;;0.00;0.00;;;;;;;;;;5013282;28;20127;-92
2022/08/12 14:16:24;;;;;;;0.00;0.00;;;;;;;;;;5009304;28;20053;-92
2022/08/12 14:18:50;;;;;;;0.00;0.00;;;;;;;;;;5005696;28;20566;-91
2022/08/12 14:21:19;;;;;;;0.03;0.03;;;;;;;;;;5000307;28;20064;-92
2022/08/12 14:23:51;;;;;;;0.00;0.00;;;;;;;;;;5004352;28;20052;-87
2022/08/12 14:26:20;;;;;;;0.00;0.00;;;;;;;;;;4997743;28;20038;-90
2022/08/12 14:29:05;;;;;;;0.00;0.00;;;;;;;;;;5002152;28;20101;-91
2022/08/12 14:31:31;;;;;;;0.00;0.00;;;;;;;;;;4998118;28;20042;-90
2022/08/12 14:33:58;;;;;;;0.00;0.00;;;;;;;;;;5007597;28;20447;-92
2022/08/12 14:36:25;;;;;;;0.10;0.10;;;;;;;;;;5001070;28;20045;-91
2022/08/12 14:38:53;;;;;;;0.00;0.00;;;;;;;;;;4994505;28;20044;-90
2022/08/12 14:41:20;;;;;;;0.00;0.00;;;;;;;;;;5003689;28;20138;-91
2022/08/12 14:43:57;;;;;;;0.00;0.00;;;;;;;;;;4998901;28;20046;-92
2022/08/12 14:46:26;;;;;;;0.10;0.10;;;;;;;;;;5018480;28;20034;-91
2022/08/12 14:48:52;;;;;;;0.03;0.03;;;;;;;;;;5005144;28;20046;-92
2022/08/12 14:51:20;;;;;;;0.00;0.00;;;;;;;;;;5015844;28;20054;-92
2022/08/12 14:53:49;;;;;;;0.08;0.08;;;;;;;;;;5000764;28;20046;-93
2022/08/12 14:56:16;;;;;;;0.05;0.05;;;;;;;;;;5022313;28;20092;-93
2022/08/12 15:01:41;;;;;;;0.00;0.00;;;;;;;;;;5017557;28;20049;-91
2022/08/12 15:04:09;;;;;;;0.00;0.00;;;;;;;;;;5004146;28;20571;-92
2022/08/12 15:06:36;;;;;;;0.00;0.00;;;;;;;;;;5014573;28;20044;-90
2022/08/12 15:09:02;;;;;;;0.00;0.00;;;;;;;;;;5001065;28;20042;-92
2022/08/12 15:11:29;;;;;;;0.00;0.00;;;;;;;;;;5012035;28;20395;-91
2022/08/12 15:13:55;;;;;;;0.00;0.00;;;;;;;;;;5005682;28;20129;-91
2022/08/12 15:16:29;;;;;;;0.00;0.00;;;;;;;;;;5014186;28;20412;-91
2022/08/12 15:18:55;;;;;;;;;;;;;;;;;;5022363;28;20037;-91
2022/08/12 15:21:23;;;;;;;0.00;0.00;;;;;;;;;;5005827;28;19925;-91
2022/08/12 15:23:49;;;;;;;0.10;0.10;;;;;;;;;;4995202;28;20116;-89
2022/08/12 15:26:15;;;;;;;0.00;0.00;;;;;;;;;;4997188;28;20034;-91
2022/08/12 15:28:45;;;;;;;0.00;0.00;;;;;;;;;;5003961;28;20072;-91
2022/08/12 15:31:15;;;;;;;0.03;0.03;;;;;;;;;;5023223;28;20046;-90
2022/08/12 15:33:42;;;;;;;0.00;0.00;;;;;;;;;;5003469;28;20053;-91
2022/08/12 15:36:13;;;;;;;0.10;0.10;;;;;;;;;;5018032;28;20049;-89
2022/08/12 15:38:42;;;;;;;0.00;0.00;;;;;;;;;;5001308;28;20053;-89
2022/08/12 15:41:11;;;;;;;0.00;0.00;;;;;;;;;;5008419;28;20038;-90
2022/08/12 15:43:38;;;;;;;0.00;0.00;;;;;;;;;;5004282;28;20562;-90
2022/08/12 15:46:08;;;;;;;0.10;0.10;;;;;;;;;;4988378;28;20041;-93
2022/08/12 15:48:34;;;;;;;0.00;0.00;;;;;;;;;;5006079;28;20037;-91
2022/08/12 15:51:01;;;;;;;0.00;0.00;;;;;;;;;;5001508;28;20034;-92
2022/08/12 15:56:15;;;;;;;0.00;0.00;;;;;;;;;;5019035;28;20056;-92
2022/08/12 15:58:41;;;;;;;0.00;0.00;;;;;;;;;;5011891;28;20042;-91
2022/08/12 16:01:13;;;;;;;0.10;0.10;;;;;;;;;;5000884;28;20105;-92
2022/08/12 16:03:43;;;;;;;0.00;0.00;;;;;;;;;;5001807;28;20065;-92
2022/08/12 16:06:28;;;;;;;0.00;0.00;;;;;;;;;;4998863;28;20042;-90
2022/08/12 16:08:56;;;;;;;0.10;0.10;;;;;;;;;;5005835;28;20057;-91
2022/08/12 16:11:22;;;;;;;0.00;0.00;;;;;;;;;;5013828;28;20053;-92
2022/08/12 16:13:52;;;;;;;0.00;0.00;;;;;;;;;;4998025;28;20515;-92
2022/08/12 16:16:18;;;;;;;0.00;0.00;;;;;;;;;;5021999;28;20124;-94
2022/08/12 16:18:44;;;;;;;0.10;0.10;;;;;;;;;;5006806;28;20065;-92
2022/08/12 16:21:10;;;;;;;0.10;0.10;;;;;;;;;;5001319;28;20041;-92
2022/08/12 16:23:37;;;;;;;0.00;0.00;;;;;;;;;;4999494;28;20391;-95
2022/08/12 16:26:04;;;;;;;0.10;0.10;;;;;;;;;;4995000;28;20037;-93
2022/08/12 16:28:30;;;;;;;0.10;0.10;;;;;;;;;;5004267;28;20038;-92
2022/08/12 16:30:57;;;;;;;0.00;0.00;;;;;;;;;;5002732;28;20044;-94
2022/08/12 16:33:31;;;;;;;0.10;0.10;;;;;;;;;;5003690;28;20052;-91
2022/08/12 16:35:57;;;;;;;0.00;0.00;;;;;;;;;;5003999;28;20041;-88
2022/08/12 16:38:23;;;;;;;0.05;0.05;;;;;;;;;;5014190;28;20097;-92
2022/08/12 16:40:49;;;;;;;0.00;0.00;;;;;;;;;;4999142;28;20134;-93
2022/08/12 16:43:28;;;;;;;0.00;0.00;;;;;;;;;;5000882;28;20033;-91
2022/08/12 16:45:56;;;;;;;0.05;0.05;;;;;;;;;;5003848;28;20034;-92
2022/08/12 16:48:26;;;;;;;0.00;0.00;;;;;;;;;;5016175;28;20506;-92
2022/08/12 16:50:56;;;;;;;0.00;0.00;;;;;;;;;;5012525;28;20101;-92